createdAt,value
2023-05-09T00:00:50.686Z,178.45
2023-05-09T00:01:50.714Z,178.59
2023-05-09T00:02:50.740Z,178.39
2023-05-09T00:03:50.806Z,179.10
2023-05-09T00:04:50.910Z,179.40
2023-05-09T00:05:50.836Z,177.12
2023-05-09T00:06:50.871Z,177.57
2023-05-09T00:07:50.899Z,176.48
2023-05-09T00:08:50.953Z,176.10
2023-05-09T00:09:50.995Z,177.38
2023-05-09T00:10:51.054Z,177.16
2023-05-09T00:11:51.083Z,176.72
2023-05-09T00:12:51.156Z,178.66
2023-05-09T00:13:52.081Z,176.86
2023-05-09T00:14:51.295Z,177.37
2023-05-09T00:15:51.239Z,176.76
2023-05-09T00:16:51.347Z,176.56
2023-05-09T00:17:51.348Z,177.15
2023-05-09T00:18:51.385Z,176.50
2023-05-09T00:19:51.391Z,177.07
2023-05-09T00:20:51.425Z,177.19
2023-05-09T00:21:51.527Z,176.53
2023-05-09T00:22:51.527Z,177.17
2023-05-09T00:23:51.574Z,175.45
2023-05-09T00:24:51.576Z,175.82
2023-05-09T00:25:51.645Z,175.49
2023-05-09T00:26:51.689Z,176.62
2023-05-09T00:27:51.712Z,175.67
2023-05-09T00:28:51.750Z,175.60
2023-05-09T00:29:51.792Z,175.45
2023-05-09T00:30:51.952Z,175.39
2023-05-09T00:31:51.889Z,175.68
2023-05-09T00:32:51.980Z,175.87
2023-05-09T00:33:51.962Z,175.63
2023-05-09T00:34:51.966Z,174.81
2023-05-09T00:35:51.993Z,174.82
2023-05-09T00:36:52.027Z,174.84
2023-05-09T00:37:52.157Z,174.33
2023-05-09T00:38:52.105Z,174.13
2023-05-09T00:39:52.128Z,173.00
2023-05-09T00:40:52.204Z,175.03
2023-05-09T00:41:52.252Z,175.92
2023-05-09T00:42:52.234Z,172.40
2023-05-09T00:43:52.347Z,173.11
2023-05-09T00:44:52.318Z,174.53
2023-05-09T00:45:54.243Z,173.16
2023-05-09T00:46:52.448Z,174.07
2023-05-09T00:47:52.593Z,174.40
2023-05-09T00:48:52.569Z,172.31
2023-05-09T00:49:52.547Z,173.50
2023-05-09T00:50:52.653Z,174.58
2023-05-09T00:51:52.650Z,173.11
2023-05-09T00:52:52.669Z,171.34
2023-05-09T00:53:52.733Z,172.28
2023-05-09T00:54:52.772Z,174.07
2023-05-09T00:55:52.836Z,172.99
2023-05-09T00:56:52.940Z,173.69
2023-05-09T00:57:52.917Z,173.46
2023-05-09T00:58:52.929Z,172.63
2023-05-09T00:59:53.005Z,172.32
2023-05-09T01:00:53.071Z,172.85
2023-05-09T01:01:53.361Z,172.13
2023-05-09T01:02:53.352Z,172.68
2023-05-09T01:03:53.287Z,172.42
2023-05-09T01:04:53.249Z,171.67
2023-05-09T01:05:53.326Z,171.87
2023-05-09T01:06:53.346Z,172.28
2023-05-09T01:07:53.375Z,171.14
2023-05-09T01:08:53.604Z,171.59
2023-05-09T01:09:53.545Z,173.19
2023-05-09T01:10:53.525Z,171.76
2023-05-09T01:11:53.582Z,170.64
2023-05-09T01:12:53.738Z,170.80
2023-05-09T01:13:53.671Z,172.10
2023-05-09T01:14:53.738Z,170.27
2023-05-09T01:15:53.802Z,170.07
2023-05-09T01:16:53.820Z,169.35
2023-05-09T01:17:53.975Z,171.78
2023-05-09T01:18:53.877Z,169.66
2023-05-09T01:19:53.906Z,169.60
2023-05-09T01:20:53.956Z,170.69
2023-05-09T01:21:54.131Z,169.68
2023-05-09T01:22:54.070Z,170.79
2023-05-09T01:23:54.114Z,170.52
2023-05-09T01:24:54.120Z,171.08
2023-05-09T01:25:54.185Z,169.08
2023-05-09T01:26:54.231Z,171.07
2023-05-09T01:27:54.251Z,169.60
2023-05-09T01:28:54.321Z,168.88
2023-05-09T01:29:54.362Z,170.20
2023-05-09T01:30:54.426Z,169.29
2023-05-09T01:31:54.466Z,169.92
2023-05-09T01:32:54.509Z,168.19
2023-05-09T01:33:54.635Z,169.69
2023-05-09T01:34:54.562Z,169.19
2023-05-09T01:35:54.632Z,169.18
2023-05-09T01:36:54.706Z,169.48
2023-05-09T01:37:54.752Z,169.24
2023-05-09T01:38:54.766Z,168.36
2023-05-09T01:39:54.822Z,167.96
2023-05-09T01:40:54.858Z,169.39
2023-05-09T01:41:54.968Z,168.69
2023-05-09T01:42:54.961Z,169.67
2023-05-09T01:43:55.075Z,169.72
2023-05-09T01:44:55.045Z,167.40
2023-05-09T01:45:55.099Z,168.49
2023-05-09T01:46:55.215Z,168.85
2023-05-09T01:47:55.232Z,168.27
2023-05-09T01:48:55.253Z,166.64
2023-05-09T01:49:55.416Z,167.67
2023-05-09T01:50:55.344Z,169.02
2023-05-09T01:51:55.388Z,166.36
2023-05-09T01:52:55.414Z,166.41
2023-05-09T01:53:55.460Z,167.23
2023-05-09T01:54:55.466Z,167.46
2023-05-09T01:55:55.522Z,167.49
2023-05-09T01:56:55.626Z,166.80
2023-05-09T01:57:55.611Z,167.98
2023-05-09T01:58:55.668Z,165.88
2023-05-09T01:59:55.718Z,166.44
2023-05-09T02:00:55.801Z,165.68
2023-05-09T02:01:55.816Z,166.26
2023-05-09T02:02:56.051Z,165.43
2023-05-09T02:03:55.861Z,164.31
2023-05-09T02:04:55.996Z,166.77
2023-05-09T02:05:56.036Z,165.73
2023-05-09T02:06:56.018Z,164.71
2023-05-09T02:07:56.029Z,165.38
2023-05-09T02:08:56.102Z,165.83
2023-05-09T02:09:56.126Z,165.38
2023-05-09T02:10:56.268Z,164.30
2023-05-09T02:11:56.226Z,164.75
2023-05-09T02:12:56.290Z,165.08
2023-05-09T02:13:56.284Z,164.07
2023-05-09T02:14:56.301Z,164.45
2023-05-09T02:15:56.398Z,165.21
2023-05-09T02:16:56.527Z,165.10
2023-05-09T02:17:56.500Z,165.70
2023-05-09T02:18:56.504Z,164.85
2023-05-09T02:19:56.552Z,166.47
2023-05-09T02:20:56.630Z,164.24
2023-05-09T02:21:56.740Z,163.87
2023-05-09T02:22:56.695Z,164.99
2023-05-09T02:23:56.711Z,164.58
2023-05-09T02:24:56.762Z,164.79
2023-05-09T02:25:56.832Z,163.46
2023-05-09T02:26:56.925Z,163.38
2023-05-09T02:27:56.938Z,164.59
2023-05-09T02:28:56.941Z,163.91
2023-05-09T02:29:56.979Z,164.37
2023-05-09T02:30:57.050Z,164.63
2023-05-09T02:31:57.163Z,164.64
2023-05-09T02:32:57.150Z,163.16
2023-05-09T02:33:57.185Z,163.39
2023-05-09T02:34:57.226Z,162.88
2023-05-09T02:35:57.295Z,161.91
2023-05-09T02:36:57.351Z,163.94
2023-05-09T02:37:57.404Z,163.28
2023-05-09T02:38:57.416Z,161.14
2023-05-09T02:39:57.451Z,163.63
2023-05-09T02:40:57.511Z,165.00
2023-05-09T02:41:57.555Z,162.58
2023-05-09T02:42:57.584Z,162.90
2023-05-09T02:43:57.675Z,164.78
2023-05-09T02:44:57.662Z,163.95
2023-05-09T02:45:57.756Z,162.19
2023-05-09T02:46:57.752Z,161.13
2023-05-09T02:47:57.818Z,163.43
2023-05-09T02:48:57.874Z,162.61
2023-05-09T02:49:57.900Z,162.39
2023-05-09T02:50:57.923Z,162.24
2023-05-09T02:51:57.993Z,161.57
2023-05-09T02:52:58.018Z,162.63
2023-05-09T02:53:58.165Z,162.07
2023-05-09T02:54:58.071Z,162.69
2023-05-09T02:55:58.103Z,162.77
2023-05-09T02:56:58.156Z,161.66
2023-05-09T02:58:11.972Z,159.30
2023-05-09T02:58:59.203Z,159.52
2023-05-09T02:59:58.190Z,159.90
2023-05-09T03:00:58.167Z,160.79
2023-05-09T03:01:58.175Z,161.25
2023-05-09T03:02:58.224Z,161.66
2023-05-09T03:03:58.189Z,161.35
2023-05-09T03:04:58.134Z,159.70
2023-05-09T03:05:58.120Z,160.13
2023-05-09T03:06:58.112Z,162.92
2023-05-09T03:07:58.139Z,161.56
2023-05-09T03:08:58.217Z,161.52
2023-05-09T03:09:58.170Z,159.88
2023-05-09T03:10:58.133Z,160.39
2023-05-09T03:11:58.201Z,161.00
2023-05-09T03:12:58.238Z,158.24
2023-05-09T03:13:58.285Z,159.92
2023-05-09T03:14:58.332Z,159.12
2023-05-09T03:15:58.412Z,159.79
2023-05-09T03:16:58.447Z,158.86
2023-05-09T03:17:58.522Z,159.20
2023-05-09T03:18:58.547Z,160.04
2023-05-09T03:19:58.572Z,159.04
2023-05-09T03:20:58.651Z,160.45
2023-05-09T03:21:58.683Z,159.89
2023-05-09T03:22:58.775Z,162.06
2023-05-09T03:23:58.809Z,159.73
2023-05-09T03:24:58.805Z,159.88
2023-05-09T03:25:58.962Z,158.26
2023-05-09T03:26:58.936Z,158.25
2023-05-09T03:27:59.194Z,162.38
2023-05-09T03:28:59.031Z,159.15
2023-05-09T03:29:59.048Z,160.04
2023-05-09T03:30:59.141Z,160.64
2023-05-09T03:31:59.134Z,160.27
2023-05-09T03:32:59.254Z,159.88
2023-05-09T03:33:59.244Z,159.46
2023-05-09T03:34:59.297Z,159.71
2023-05-09T03:35:59.334Z,158.82
2023-05-09T03:36:59.346Z,161.15
2023-05-09T03:37:59.421Z,158.46
2023-05-09T03:38:59.479Z,159.17
2023-05-09T03:39:59.516Z,157.53
2023-05-09T03:40:59.556Z,158.59
2023-05-09T03:41:59.683Z,159.30
2023-05-09T03:42:59.663Z,158.26
2023-05-09T03:43:59.716Z,157.07
2023-05-09T03:44:59.757Z,157.63
2023-05-09T03:45:59.820Z,158.92
2023-05-09T03:46:59.952Z,156.86
2023-05-09T03:47:59.902Z,156.45
2023-05-09T03:48:59.910Z,157.22
2023-05-09T03:49:59.935Z,156.72
2023-05-09T03:51:00.027Z,159.19
2023-05-09T03:52:00.063Z,157.16
2023-05-09T03:53:00.121Z,157.01
2023-05-09T03:54:00.206Z,155.77
2023-05-09T03:55:00.189Z,156.87
2023-05-09T03:56:00.269Z,158.45
2023-05-09T03:57:00.273Z,157.84
2023-05-09T03:58:00.423Z,155.17
2023-05-09T03:59:00.358Z,155.80
2023-05-09T04:00:00.441Z,154.70
2023-05-09T04:01:00.466Z,157.36
2023-05-09T04:02:00.513Z,156.62
2023-05-09T04:03:00.624Z,153.51
2023-05-09T04:04:00.619Z,155.83
2023-05-09T04:05:00.583Z,154.55
2023-05-09T04:06:02.202Z,155.48
2023-05-09T04:07:00.659Z,156.92
2023-05-09T04:08:00.680Z,156.75
2023-05-09T04:09:00.715Z,154.90
2023-05-09T04:10:00.783Z,154.43
2023-05-09T04:11:00.793Z,155.23
2023-05-09T04:12:00.854Z,155.63
2023-05-09T04:13:00.913Z,157.36
2023-05-09T04:14:01.005Z,155.48
2023-05-09T04:15:00.967Z,155.45
2023-05-09T04:16:01.047Z,154.85
2023-05-09T04:17:01.207Z,156.57
2023-05-09T04:18:01.132Z,155.47
2023-05-09T04:19:01.152Z,156.01
2023-05-09T04:20:01.216Z,156.16
2023-05-09T04:21:01.215Z,153.28
2023-05-09T04:22:01.255Z,154.75
2023-05-09T04:23:01.320Z,153.94
2023-05-09T04:24:01.360Z,154.93
2023-05-09T04:25:01.402Z,153.85
2023-05-09T04:26:01.475Z,155.47
2023-05-09T04:27:01.502Z,154.25
2023-05-09T04:28:01.565Z,154.83
2023-05-09T04:29:01.643Z,156.06
2023-05-09T04:30:01.760Z,154.98
2023-05-09T04:31:01.803Z,151.93
2023-05-09T04:32:01.943Z,153.19
2023-05-09T04:33:01.856Z,154.01
2023-05-09T04:34:01.951Z,152.41
2023-05-09T04:35:01.990Z,154.86
2023-05-09T04:36:02.033Z,155.73
2023-05-09T04:37:02.076Z,154.81
2023-05-09T04:38:02.120Z,155.65
2023-05-09T04:39:02.204Z,153.71
2023-05-09T04:40:02.206Z,153.74
2023-05-09T04:41:02.388Z,154.99
2023-05-09T04:42:02.346Z,153.71
2023-05-09T04:43:02.414Z,152.99
2023-05-09T04:44:02.462Z,152.34
2023-05-09T04:45:02.471Z,151.53
2023-05-09T04:46:02.680Z,153.09
2023-05-09T04:47:02.607Z,152.35
2023-05-09T04:48:02.676Z,154.37
2023-05-09T04:49:02.688Z,152.98
2023-05-09T04:50:02.706Z,154.04
2023-05-09T04:51:02.718Z,152.63
2023-05-09T04:52:02.798Z,152.16
2023-05-09T04:53:02.806Z,152.76
2023-05-09T04:54:02.894Z,154.08
2023-05-09T04:55:02.914Z,151.99
2023-05-09T04:56:02.958Z,153.88
2023-05-09T04:57:13.703Z,153.00
2023-05-09T04:58:03.963Z,153.20
2023-05-09T04:59:03.230Z,153.11
2023-05-09T05:00:02.953Z,153.29
2023-05-09T05:01:02.972Z,153.20
2023-05-09T05:02:03.245Z,153.49
2023-05-09T05:03:02.972Z,153.76
2023-05-09T05:04:02.920Z,152.18
2023-05-09T05:05:17.547Z,153.58
2023-05-09T05:06:03.920Z,153.72
2023-05-09T05:07:02.897Z,153.89
2023-05-09T05:08:02.876Z,153.22
2023-05-09T05:09:02.906Z,152.21
2023-05-09T05:10:02.877Z,151.76
2023-05-09T05:11:03.039Z,150.87
2023-05-09T05:12:04.932Z,149.79
2023-05-09T05:13:02.911Z,151.73
2023-05-09T05:14:02.852Z,151.06
2023-05-09T05:15:02.881Z,148.05
2023-05-09T05:16:02.883Z,147.29
2023-05-09T05:17:02.862Z,147.69
2023-05-09T05:18:03.005Z,147.73
2023-05-09T05:19:02.843Z,147.31
2023-05-09T05:20:02.812Z,141.99
2023-05-09T05:21:02.828Z,144.08
2023-05-09T05:22:02.784Z,145.43
2023-05-09T05:23:02.901Z,144.33
2023-05-09T05:24:02.827Z,142.63
2023-05-09T05:25:02.780Z,142.10
2023-05-09T05:26:03.717Z,142.99
2023-05-09T05:27:03.753Z,143.62
2023-05-09T05:28:02.758Z,142.98
2023-05-09T05:29:02.766Z,143.46
2023-05-09T05:30:02.757Z,143.28
2023-05-09T05:31:02.754Z,146.14
2023-05-09T05:32:02.729Z,153.23
2023-05-09T05:33:02.851Z,155.05
2023-05-09T05:34:02.866Z,194.60
2023-05-09T05:35:02.763Z,206.43
2023-05-09T05:36:02.855Z,196.89
2023-05-09T05:37:02.680Z,199.03
2023-05-09T05:38:02.672Z,202.59
2023-05-09T05:39:02.743Z,210.37
2023-05-09T05:40:02.672Z,206.40
2023-05-09T05:41:02.738Z,208.39
2023-05-09T05:42:02.659Z,218.45
2023-05-09T05:43:02.732Z,204.50
2023-05-09T05:44:02.647Z,207.10
2023-05-09T05:45:02.736Z,209.49
2023-05-09T05:46:02.671Z,208.96
2023-05-09T05:47:02.656Z,207.89
2023-05-09T05:48:02.789Z,213.75
2023-05-09T05:49:02.613Z,210.46
2023-05-09T05:50:02.772Z,214.89
2023-05-09T05:51:02.639Z,208.38
2023-05-09T05:52:02.709Z,211.90
2023-05-09T05:53:02.789Z,209.78
2023-05-09T05:54:02.807Z,209.76
2023-05-09T05:55:02.857Z,210.80
2023-05-09T05:56:02.903Z,214.72
2023-05-09T05:57:02.946Z,218.27
2023-05-09T05:58:02.982Z,213.56
2023-05-09T05:59:03.080Z,209.46
2023-05-09T06:00:03.145Z,210.62
2023-05-09T06:01:03.157Z,219.86
2023-05-09T06:02:03.297Z,218.43
2023-05-09T06:03:03.841Z,218.02
2023-05-09T06:04:03.388Z,216.13
2023-05-09T06:05:03.336Z,214.00
2023-05-09T06:06:03.390Z,213.75
2023-05-09T06:07:03.450Z,217.07
2023-05-09T06:08:03.528Z,220.28
2023-05-09T06:09:03.553Z,225.26
2023-05-09T06:10:03.611Z,226.06
2023-05-09T06:11:04.231Z,226.13
2023-05-09T06:12:03.715Z,225.23
2023-05-09T06:13:04.018Z,227.97
2023-05-09T06:14:03.809Z,227.56
2023-05-09T06:15:03.893Z,225.83
2023-05-09T06:16:14.919Z,229.44
2023-05-09T06:17:05.013Z,229.65
2023-05-09T06:18:03.979Z,229.99
2023-05-09T06:19:03.898Z,230.05
2023-05-09T06:20:03.877Z,231.52
2023-05-09T06:21:03.873Z,232.41
2023-05-09T06:22:03.960Z,233.86
2023-05-09T06:23:03.933Z,236.65
2023-05-09T06:24:10.268Z,246.56
2023-05-09T06:25:04.950Z,246.76
2023-05-09T06:26:03.867Z,242.10
2023-05-09T06:28:03.870Z,239.26
2023-05-09T06:29:03.850Z,236.23
2023-05-09T06:30:14.175Z,238.82
2023-05-09T06:31:04.826Z,239.23
2023-05-09T06:32:03.800Z,239.52
2023-05-09T06:33:04.291Z,240.51
2023-05-09T06:34:03.803Z,239.27
2023-05-09T06:35:03.804Z,238.37
2023-05-09T06:36:03.793Z,239.66
2023-05-09T06:37:03.829Z,245.25
2023-05-09T06:38:04.844Z,235.27
2023-05-09T06:39:04.254Z,229.77
2023-05-09T06:40:03.789Z,227.77
2023-05-09T06:41:03.874Z,227.06
2023-05-09T06:42:03.830Z,231.38
2023-05-09T06:43:03.894Z,229.35
2023-05-09T06:44:03.958Z,230.44
2023-05-09T06:45:03.988Z,232.07
2023-05-09T06:46:04.066Z,235.67
2023-05-09T06:47:04.073Z,239.78
2023-05-09T06:48:04.113Z,246.60
2023-05-09T06:49:04.213Z,249.03
2023-05-09T06:50:04.226Z,244.79
2023-05-09T06:51:04.406Z,241.71
2023-05-09T06:52:04.302Z,250.45
2023-05-09T06:53:04.386Z,247.87
2023-05-09T06:54:04.534Z,250.47
2023-05-09T06:55:04.479Z,250.78
2023-05-09T06:56:04.526Z,250.00
2023-05-09T06:57:04.577Z,250.00
2023-05-09T06:58:04.710Z,250.00
2023-05-09T06:59:04.703Z,249.87
2023-05-09T07:00:04.821Z,250.00
2023-05-09T07:01:04.790Z,250.00
2023-05-09T07:02:04.882Z,248.60
2023-05-09T07:03:05.049Z,249.15
2023-05-09T07:04:05.762Z,248.78
2023-05-09T07:05:05.178Z,249.97
2023-05-09T07:06:05.063Z,248.99
2023-05-09T07:07:05.104Z,250.32
2023-05-09T07:08:05.165Z,250.00
2023-05-09T07:09:05.364Z,250.00
2023-05-09T07:10:11.483Z,248.40
2023-05-09T07:11:06.289Z,248.62
2023-05-09T07:12:05.280Z,248.95
2023-05-09T07:13:05.304Z,249.24
2023-05-09T07:14:05.274Z,249.60
2023-05-09T07:15:05.253Z,251.67
2023-05-09T07:16:05.278Z,247.27
2023-05-09T07:17:21.346Z,247.66
2023-05-09T07:18:06.260Z,247.87
2023-05-09T07:19:05.221Z,248.01
2023-05-09T07:20:05.238Z,248.00
2023-05-09T07:21:05.161Z,245.59
2023-05-09T07:22:05.191Z,246.55
2023-05-09T07:23:05.198Z,247.76
2023-05-09T07:24:05.184Z,245.79
2023-05-09T07:25:05.236Z,244.46
2023-05-09T07:26:05.245Z,242.90
2023-05-09T07:27:05.162Z,240.89
2023-05-09T07:28:05.221Z,240.08
2023-05-09T07:29:05.239Z,237.82
2023-05-09T07:30:05.261Z,235.22
2023-05-09T07:31:05.297Z,233.77
2023-05-09T07:32:05.452Z,230.02
2023-05-09T07:33:05.448Z,226.13
2023-05-09T07:34:05.779Z,224.11
2023-05-09T07:35:05.527Z,243.09
2023-05-09T07:36:05.503Z,244.43
2023-05-09T07:37:05.619Z,240.39
2023-05-09T07:38:05.601Z,237.19
2023-05-09T07:39:06.015Z,225.76
2023-05-09T07:40:05.656Z,212.62
2023-05-09T07:41:05.631Z,214.06
2023-05-09T07:42:06.343Z,213.76
2023-05-09T07:43:05.727Z,211.87
2023-05-09T07:44:05.777Z,212.28
2023-05-09T07:45:05.773Z,211.95
2023-05-09T07:46:05.939Z,216.66
2023-05-09T07:47:05.897Z,223.26
2023-05-09T07:48:05.936Z,227.85
2023-05-09T07:49:05.975Z,229.61
2023-05-09T07:50:06.018Z,232.54
2023-05-09T07:51:06.097Z,234.62
2023-05-09T07:52:06.177Z,237.15
2023-05-09T07:53:06.323Z,238.23
2023-05-09T07:54:06.347Z,240.98
2023-05-09T07:55:06.215Z,244.54
2023-05-09T07:56:06.265Z,244.69
2023-05-09T07:57:06.342Z,247.91
2023-05-09T07:58:06.444Z,244.83
2023-05-09T07:59:06.495Z,244.73
2023-05-09T08:00:06.427Z,243.91
2023-05-09T08:01:06.502Z,241.40
2023-05-09T08:02:06.583Z,241.89
2023-05-09T08:03:06.605Z,239.52
2023-05-09T08:04:06.714Z,240.61
2023-05-09T08:05:06.646Z,240.62
2023-05-09T08:06:06.672Z,242.49
2023-05-09T08:07:06.683Z,239.20
2023-05-09T08:08:06.796Z,237.05
2023-05-09T08:09:06.845Z,237.96
2023-05-09T08:10:06.801Z,235.74
2023-05-09T08:11:06.934Z,237.39
2023-05-09T08:12:06.905Z,238.33
2023-05-09T08:13:06.965Z,238.65
2023-05-09T08:14:07.105Z,239.53
2023-05-09T08:15:07.129Z,244.32
2023-05-09T08:16:07.108Z,245.63
2023-05-09T08:17:07.113Z,249.44
2023-05-09T08:18:07.280Z,249.64
2023-05-09T08:19:07.174Z,249.83
2023-05-09T08:20:07.167Z,249.98
2023-05-09T08:21:07.224Z,248.61
2023-05-09T08:22:07.259Z,242.81
2023-05-09T08:23:07.286Z,239.76
2023-05-09T08:24:07.824Z,237.82
2023-05-09T08:25:07.373Z,239.46
2023-05-09T08:26:07.433Z,234.87
2023-05-09T08:27:07.504Z,234.45
2023-05-09T08:28:07.469Z,234.23
2023-05-09T08:29:07.806Z,232.80
2023-05-09T08:30:07.595Z,234.51
2023-05-09T08:31:07.575Z,232.42
2023-05-09T08:32:10.327Z,232.60
2023-05-09T08:33:07.697Z,231.20
2023-05-09T08:34:07.580Z,230.75
2023-05-09T08:35:07.559Z,229.84
2023-05-09T08:36:07.583Z,226.52
2023-05-09T08:37:08.305Z,225.75
2023-05-09T08:38:07.574Z,220.52
2023-05-09T08:39:07.857Z,218.43
2023-05-09T08:40:07.834Z,218.54
2023-05-09T08:41:07.539Z,228.34
2023-05-09T08:42:07.649Z,230.94
2023-05-09T08:43:07.492Z,227.99
2023-05-09T08:44:07.638Z,222.11
2023-05-09T08:45:07.498Z,217.98
2023-05-09T08:46:07.604Z,215.11
2023-05-09T08:47:07.485Z,216.48
2023-05-09T08:48:07.544Z,212.79
2023-05-09T08:49:07.468Z,210.77
2023-05-09T08:50:08.329Z,210.50
2023-05-09T08:51:07.457Z,207.78
2023-05-09T08:52:07.461Z,207.26
2023-05-09T08:53:07.459Z,205.69
2023-05-09T08:54:09.314Z,203.13
2023-05-09T08:55:07.470Z,203.23
2023-05-09T08:56:07.456Z,200.91
2023-05-09T08:57:07.487Z,199.74
2023-05-09T08:58:07.398Z,202.70
2023-05-09T08:59:07.407Z,206.55
2023-05-09T09:00:07.412Z,203.98
2023-05-09T09:01:07.379Z,200.75
2023-05-09T09:02:07.610Z,193.11
2023-05-09T09:03:07.384Z,191.49
2023-05-09T09:04:07.421Z,189.26
2023-05-09T09:05:08.171Z,189.53
2023-05-09T09:06:08.357Z,189.77
2023-05-09T09:07:07.324Z,187.29
2023-05-09T09:08:07.330Z,184.61
2023-05-09T09:09:07.328Z,188.07
2023-05-09T09:10:07.329Z,182.44
2023-05-09T09:11:07.302Z,182.19
2023-05-09T09:12:07.343Z,178.36
2023-05-09T09:13:07.494Z,173.32
2023-05-09T09:14:07.334Z,164.96
2023-05-09T09:15:07.272Z,163.95
2023-05-09T09:16:07.316Z,160.75
2023-05-09T09:17:07.279Z,170.30
2023-05-09T09:18:07.337Z,163.37
2023-05-09T09:19:07.267Z,158.44
2023-05-09T09:20:07.310Z,159.30
2023-05-09T09:21:07.384Z,157.97
2023-05-09T09:22:07.336Z,161.64
2023-05-09T09:23:07.348Z,159.97
2023-05-09T09:24:07.387Z,157.74
2023-05-09T09:25:07.408Z,160.80
2023-05-09T09:26:07.496Z,154.80
2023-05-09T09:27:07.518Z,149.92
2023-05-09T09:28:07.569Z,152.26
2023-05-09T09:29:07.737Z,144.39
2023-05-09T09:30:07.633Z,138.59
2023-05-09T09:31:07.669Z,141.88
2023-05-09T09:32:07.783Z,135.28
2023-05-09T09:33:07.842Z,132.74
2023-05-09T09:34:08.413Z,134.54
2023-05-09T09:35:07.810Z,139.62
2023-05-09T09:36:07.841Z,143.61
2023-05-09T09:37:07.900Z,149.68
2023-05-09T09:38:07.867Z,141.67
2023-05-09T09:39:07.936Z,136.96
2023-05-09T09:40:07.916Z,143.14
2023-05-09T09:41:07.930Z,143.28
2023-05-09T09:42:07.928Z,137.36
2023-05-09T09:43:07.955Z,115.65
2023-05-09T09:44:08.360Z,104.89
2023-05-09T09:45:08.124Z,74.89
2023-05-09T09:46:08.051Z,65.63
2023-05-09T09:47:08.094Z,69.37
2023-05-09T09:48:08.137Z,77.35
2023-05-09T09:49:08.063Z,85.13
2023-05-09T09:50:08.165Z,93.02
2023-05-09T09:51:08.071Z,102.68
2023-05-09T09:52:08.842Z,90.58
2023-05-09T09:53:08.183Z,68.08
2023-05-09T09:54:08.216Z,68.36
2023-05-09T09:55:08.178Z,55.99
2023-05-09T09:56:08.203Z,43.14
2023-05-09T09:57:08.199Z,49.99
2023-05-09T09:58:08.236Z,60.08
2023-05-09T09:59:08.298Z,64.61
2023-05-09T10:00:08.291Z,74.03
2023-05-09T10:01:08.554Z,94.04
2023-05-09T10:02:08.625Z,95.07
2023-05-09T10:03:08.387Z,92.65
2023-05-09T10:04:08.516Z,100.36
2023-05-09T10:05:08.362Z,97.30
2023-05-09T10:06:08.472Z,93.24
2023-05-09T10:07:08.476Z,95.24
2023-05-09T10:08:08.434Z,95.74
2023-05-09T10:09:08.433Z,98.50
2023-05-09T10:10:08.486Z,99.05
2023-05-09T10:11:08.573Z,83.65
2023-05-09T10:12:08.714Z,76.56
2023-05-09T10:13:08.507Z,53.02
2023-05-09T10:14:10.440Z,53.45
2023-05-09T10:15:08.585Z,58.15
2023-05-09T10:16:08.669Z,58.70
2023-05-09T10:17:08.651Z,59.73
2023-05-09T10:18:08.781Z,65.86
2023-05-09T10:19:09.412Z,73.01
2023-05-09T10:20:08.586Z,74.70
2023-05-09T10:21:08.564Z,61.46
2023-05-09T10:22:08.714Z,55.90
2023-05-09T10:23:08.588Z,67.43
2023-05-09T10:24:08.594Z,67.98
2023-05-09T10:25:08.641Z,79.85
2023-05-09T10:26:08.608Z,91.84
2023-05-09T10:27:08.605Z,102.56
2023-05-09T10:28:08.635Z,117.30
2023-05-09T10:29:08.686Z,124.11
2023-05-09T10:30:08.660Z,133.13
2023-05-09T10:31:08.953Z,131.50
2023-05-09T10:32:08.787Z,137.23
2023-05-09T10:33:08.789Z,143.79
2023-05-09T10:34:08.678Z,153.70
2023-05-09T10:35:08.679Z,147.89
2023-05-09T10:36:08.683Z,156.86
2023-05-09T10:37:08.748Z,164.08
2023-05-09T10:38:08.750Z,159.58
2023-05-09T10:39:08.685Z,159.02
2023-05-09T10:40:08.655Z,145.38
2023-05-09T10:41:08.647Z,142.05
2023-05-09T10:42:08.785Z,139.57
2023-05-09T10:43:08.664Z,135.07
2023-05-09T10:44:08.697Z,138.02
2023-05-09T10:45:08.689Z,129.17
2023-05-09T10:46:08.785Z,130.02
2023-05-09T10:47:08.797Z,127.74
2023-05-09T10:48:09.063Z,134.72
2023-05-09T10:49:08.872Z,125.91
2023-05-09T10:50:08.845Z,110.07
2023-05-09T10:51:08.824Z,112.15
2023-05-09T10:52:08.856Z,114.45
2023-05-09T10:53:08.957Z,107.34
2023-05-09T10:54:08.951Z,97.98
2023-05-09T10:55:08.924Z,102.77
2023-05-09T10:56:08.931Z,106.66
2023-05-09T10:57:08.919Z,102.40
2023-05-09T10:58:08.934Z,90.42
2023-05-09T10:59:08.958Z,96.40
2023-05-09T11:00:09.094Z,91.18
2023-05-09T11:01:09.024Z,83.25
2023-05-09T11:02:09.024Z,83.88
2023-05-09T11:03:09.083Z,73.49
2023-05-09T11:04:09.070Z,69.63
2023-05-09T11:05:09.108Z,54.57
2023-05-09T11:06:09.124Z,48.87
2023-05-09T11:07:09.158Z,47.06
2023-05-09T11:08:09.159Z,50.88
2023-05-09T11:09:09.214Z,49.42
2023-05-09T11:10:09.207Z,35.62
2023-05-09T11:11:09.191Z,40.55
2023-05-09T11:12:09.235Z,43.36
2023-05-09T11:13:09.236Z,43.77
2023-05-09T11:14:09.236Z,41.99
2023-05-09T11:15:09.246Z,52.39
2023-05-09T11:16:09.286Z,50.51
2023-05-09T11:17:09.263Z,57.45
2023-05-09T11:18:09.320Z,67.37
2023-05-09T11:19:09.215Z,69.75
2023-05-09T11:20:09.360Z,62.29
2023-05-09T11:21:09.412Z,76.28
2023-05-09T11:22:09.327Z,96.54
2023-05-09T11:23:09.396Z,112.54
2023-05-09T11:24:09.442Z,105.05
2023-05-09T11:25:09.582Z,100.61
2023-05-09T11:26:09.632Z,73.30
2023-05-09T11:27:09.544Z,48.37
2023-05-09T11:28:09.582Z,22.27
2023-05-09T11:29:09.571Z,15.70
2023-05-09T11:30:09.645Z,20.09
2023-05-09T11:31:09.669Z,21.78
2023-05-09T11:32:09.676Z,17.08
2023-05-09T11:33:09.686Z,14.05
2023-05-09T11:34:09.666Z,5.69
2023-05-09T11:35:09.741Z,26.58
2023-05-09T11:36:09.700Z,24.81
2023-05-09T11:37:09.745Z,27.45
2023-05-09T11:38:09.777Z,28.42
2023-05-09T11:39:09.771Z,25.35
2023-05-09T11:40:09.792Z,36.17
2023-05-09T11:41:09.794Z,32.32
2023-05-09T11:42:09.906Z,46.56
2023-05-09T11:43:09.822Z,44.43
2023-05-09T11:44:09.809Z,58.23
2023-05-09T11:45:09.832Z,68.28
2023-05-09T11:46:09.953Z,66.86
2023-05-09T11:47:09.837Z,67.01
2023-05-09T11:48:10.077Z,68.81
2023-05-09T11:49:12.020Z,81.68
2023-05-09T11:50:09.961Z,79.43
2023-05-09T11:51:09.927Z,82.56
2023-05-09T11:52:09.937Z,83.35
2023-05-09T11:53:09.927Z,88.72
2023-05-09T11:54:09.926Z,86.42
2023-05-09T11:55:12.226Z,87.37
2023-05-09T11:56:09.922Z,88.41
2023-05-09T11:57:09.916Z,85.55
2023-05-09T11:58:09.991Z,82.24
2023-05-09T11:59:09.993Z,71.65
2023-05-09T12:00:09.884Z,73.32
2023-05-09T12:01:11.768Z,57.98
2023-05-09T12:02:09.942Z,41.09
2023-05-09T12:03:09.963Z,24.65
2023-05-09T12:04:09.953Z,31.08
2023-05-09T12:05:09.900Z,5.98
2023-05-09T12:06:09.888Z,0.00
2023-05-09T12:07:09.845Z,0.00
2023-05-09T12:08:09.954Z,0.00
2023-05-09T12:09:09.832Z,6.78
2023-05-09T12:10:09.856Z,0.00
2023-05-09T12:11:10.377Z,0.00
2023-05-09T12:12:09.799Z,9.85
2023-05-09T12:13:09.862Z,8.37
2023-05-09T12:14:09.883Z,22.42
2023-05-09T12:15:09.904Z,27.86
2023-05-09T12:16:09.820Z,26.63
2023-05-09T12:17:09.792Z,25.49
2023-05-09T12:18:09.810Z,39.32
2023-05-09T12:19:09.848Z,42.43
2023-05-09T12:20:09.885Z,43.13
2023-05-09T12:21:09.767Z,41.94
2023-05-09T12:22:09.939Z,51.48
2023-05-09T12:23:09.840Z,45.40
2023-05-09T12:24:09.903Z,43.39
2023-05-09T12:25:09.990Z,35.57
2023-05-09T12:26:10.019Z,37.40
2023-05-09T12:27:10.079Z,38.27
2023-05-09T12:28:10.146Z,22.76
2023-05-09T12:29:10.213Z,26.11
2023-05-09T12:30:10.382Z,36.59
2023-05-09T12:31:10.365Z,36.53
2023-05-09T12:32:10.890Z,24.85
2023-05-09T12:33:10.394Z,23.07
2023-05-09T12:34:10.504Z,27.40
2023-05-09T12:35:10.761Z,26.76